Time;durP1;ratioP1;P1;durP2;ratioP2;P2;SDS_P1;SDS_P2;PMS_P1;PMS_P2;Temp;Humidity;BMP_temperature;BMP_pressure;BME280_temperature;BME280_humidity;BME280_pressure;Samples;Min_cycle;Max_cycle;Signal;HPM_P1;HPM_P2
2022/05/29 00:00:12;;;;;;;21.58;7.03;;;;;;;8.54;100.00;101030.22;4953924;29;20273;-44
2022/05/29 00:02:38;;;;;;;23.15;7.43;;;;;;;8.47;100.00;101033.97;4954099;29;20210;-46
2022/05/29 00:05:04;;;;;;;26.13;7.50;;;;;;;8.49;100.00;101030.34;4953620;29;20175;-47
2022/05/29 00:07:30;;;;;;;17.42;6.80;;;;;;;8.54;100.00;101031.09;4953674;29;20205;-44
2022/05/29 00:09:56;;;;;;;19.00;6.43;;;;;;;8.52;100.00;101029.38;4985195;28;20637;-45
2022/05/29 00:12:23;;;;;;;24.38;7.13;;;;;;;8.36;100.00;101036.88;4953567;29;20544;-45
2022/05/29 00:14:49;;;;;;;25.25;7.07;;;;;;;8.36;100.00;101029.75;4968093;28;20634;-44
2022/05/29 00:17:18;;;;;;;22.50;7.47;;;;;;;8.22;100.00;101022.09;4954111;29;20174;-45
2022/05/29 00:19:44;;;;;;;24.35;7.95;;;;;;;8.28;100.00;101020.19;4984663;28;20190;-40
2022/05/29 00:22:14;;;;;;;28.42;8.27;;;;;;;8.29;100.00;101032.59;4953896;28;20619;-41
2022/05/29 00:24:41;;;;;;;24.00;7.78;;;;;;;8.32;100.00;101021.84;4953012;29;20186;-42
2022/05/29 00:27:07;;;;;;;29.08;8.43;;;;;;;8.32;100.00;101020.06;4953799;29;20197;-42
2022/05/29 00:29:35;;;;;;;27.02;7.18;;;;;;;8.25;100.00;101023.81;4951926;28;20258;-41
2022/05/29 00:32:02;;;;;;;22.90;7.78;;;;;;;8.21;100.00;101023.00;4953798;29;20591;-42
2022/05/29 00:34:27;;;;;;;24.35;6.82;;;;;;;8.29;100.00;101012.13;4984092;28;20263;-41
2022/05/29 00:36:53;;;;;;;22.08;6.82;;;;;;;8.33;100.00;101027.16;4953334;29;20700;-43
2022/05/29 00:39:19;;;;;;;31.40;7.40;;;;;;;8.23;100.00;101017.63;4984565;28;20259;-41
2022/05/29 00:41:45;;;;;;;22.55;7.32;;;;;;;8.30;100.00;101015.69;4953577;28;20179;-44
2022/05/29 00:44:13;;;;;;;18.38;6.47;;;;;;;8.31;100.00;101018.31;4952824;29;20178;-43
2022/05/29 00:46:42;;;;;;;18.13;6.82;;;;;;;8.29;100.00;101012.13;4953310;28;20547;-44
2022/05/29 00:49:09;;;;;;;14.75;5.57;;;;;;;8.33;100.00;101013.81;4953352;29;20190;-42
2022/05/29 00:51:42;;;;;;;20.95;7.03;;;;;;;8.15;100.00;101011.59;4953492;29;20641;-42
2022/05/29 00:54:08;;;;;;;16.52;6.15;;;;;;;8.27;100.00;101016.63;4953044;29;20191;-43
2022/05/29 00:56:37;;;;;;;24.13;7.07;;;;;;;8.24;100.00;101017.59;4984298;28;20171;-43
2022/05/29 00:59:04;;;;;;;20.08;6.72;;;;;;;8.23;100.00;101021.16;4953439;29;20323;-44
2022/05/29 01:01:30;;;;;;;27.58;7.65;;;;;;;7.96;100.00;101003.16;4953164;29;20245;-43
2022/05/29 01:03:55;;;;;;;22.60;7.28;;;;;;;8.10;100.00;101014.38;4952837;28;20673;-42
2022/05/29 01:06:21;;;;;;;23.80;7.45;;;;;;;8.08;100.00;101008.22;4953006;29;20246;-43
2022/05/29 01:08:47;;;;;;;22.38;7.70;;;;;;;8.14;100.00;101007.19;4953013;29;20274;-41
2022/05/29 01:11:19;;;;;;;25.15;7.88;;;;;;;8.22;100.00;101006.09;4952967;29;20607;-42
2022/05/29 01:14:02;;;;;;;19.15;7.22;;;;;;;8.21;100.00;101001.66;4947229;28;20241;-39
2022/05/29 01:16:39;;;;;;;24.85;7.15;;;;;;;8.25;100.00;100997.13;4950823;29;20188;-41
2022/05/29 01:19:55;;;;;;;30.90;8.15;;;;;;;8.29;100.00;101001.47;4983586;28;20561;-42
2022/05/29 01:22:58;;;;;;;29.92;7.80;;;;;;;8.25;100.00;100997.97;4924982;28;20282;-42
2022/05/29 01:25:46;;;;;;;23.80;7.25;;;;;;;8.29;100.00;101000.56;4983561;28;20186;-42
2022/05/29 01:28:30;;;;;;;26.85;7.30;;;;;;;8.28;100.00;100983.69;4952654;28;20204;-42
2022/05/29 01:31:18;;;;;;;20.73;7.35;;;;;;;8.37;100.00;100991.44;4952735;29;20237;-42
2022/05/29 01:33:46;;;;;;;25.90;7.50;;;;;;;8.40;100.00;100990.50;4952186;29;20265;-41
2022/05/29 01:36:28;;;;;;;21.55;7.03;;;;;;;8.49;100.00;100981.41;4952287;29;20174;-42
2022/05/29 01:39:00;;;;;;;31.90;7.93;;;;;;;8.46;100.00;100987.69;4952027;28;20171;-41
2022/05/29 01:41:48;;;;;;;17.98;6.05;;;;;;;8.50;100.00;100984.00;4952579;29;20197;-42
2022/05/29 01:44:37;;;;;;;27.30;7.25;;;;;;;8.44;100.00;100990.41;4951777;29;20210;-43
2022/05/29 01:47:14;;;;;;;25.05;7.50;;;;;;;8.34;100.00;100982.66;4967374;28;20242;-43
2022/05/29 01:49:49;;;;;;;21.15;7.65;;;;;;;8.35;100.00;100990.63;4952503;28;20232;-42
2022/05/29 01:52:22;;;;;;;25.20;6.68;;;;;;;8.30;100.00;100983.66;4951739;29;20202;-42
2022/05/29 01:54:57;;;;;;;18.65;7.25;;;;;;;8.32;100.00;100973.81;4952143;29;20182;-44
2022/05/29 01:57:34;;;;;;;20.13;7.15;;;;;;;8.24;100.00;100977.56;4952179;28;20293;-43
2022/05/29 02:00:11;;;;;;;27.52;7.22;;;;;;;8.20;100.00;100981.22;4952513;29;20628;-43
2022/05/29 02:02:43;;;;;;;19.80;6.85;;;;;;;8.27;100.00;100981.94;4952077;28;20198;-43
2022/05/29 02:05:23;;;;;;;16.50;5.90;;;;;;;8.34;100.00;100977.31;4951860;29;20645;-40
2022/05/29 02:07:53;;;;;;;23.92;7.13;;;;;;;8.37;100.00;100979.88;4952319;28;20222;-44
2022/05/29 02:10:21;;;;;;;20.83;6.07;;;;;;;8.41;100.00;100973.59;4951896;28;20624;-43
2022/05/29 02:13:00;;;;;;;23.27;7.25;;;;;;;8.44;100.00;100969.06;4952070;29;20194;-42
2022/05/29 02:15:52;;;;;;;23.15;7.30;;;;;;;8.32;100.00;100971.13;4952026;29;20648;-44
2022/05/29 02:18:24;;;;;;;20.58;6.78;;;;;;;8.31;100.00;100970.28;4952067;29;20178;-43
2022/05/29 02:20:53;;;;;;;28.73;8.02;;;;;;;8.30;100.00;100972.97;4951915;29;20187;-43
2022/05/29 02:23:25;;;;;;;23.20;6.75;;;;;;;8.29;100.00;100960.53;4951175;29;20289;-42
2022/05/29 02:25:53;;;;;;;28.42;7.07;;;;;;;8.33;100.00;100959.53;4952038;29;20197;-44
2022/05/29 02:28:27;;;;;;;16.58;6.00;;;;;;;8.42;100.00;100962.88;4951463;29;20221;-42
2022/05/29 02:31:17;;;;;;;28.08;7.38;;;;;;;8.35;100.00;100963.03;4952238;29;20166;-41
2022/05/29 02:33:50;;;;;;;21.10;6.78;;;;;;;8.31;100.00;100954.25;4951101;28;20269;-43
2022/05/29 02:36:34;;;;;;;26.77;7.10;;;;;;;8.29;100.00;100960.53;4952039;29;20246;-42
2022/05/29 02:39:03;;;;;;;16.33;6.22;;;;;;;8.30;100.00;100956.94;4951850;28;20210;-44
2022/05/29 02:41:44;;;;;;;25.20;6.70;;;;;;;8.29;100.00;100950.75;4982625;28;20171;-45
2022/05/29 02:44:38;;;;;;;21.63;7.00;;;;;;;8.29;100.00;100950.75;4951388;29;20182;-44
2022/05/29 02:47:13;;;;;;;28.67;7.03;;;;;;;8.23;100.00;100954.44;4942336;29;20218;-43
2022/05/29 02:49:49;;;;;;;25.10;7.20;;;;;;;8.22;100.00;100946.47;4951548;28;20182;-42
2022/05/29 02:52:16;;;;;;;19.70;6.65;;;;;;;8.23;100.00;100942.91;4952376;28;20193;-42
2022/05/29 02:54:42;;;;;;;25.42;7.20;;;;;;;8.09;100.00;100937.94;4954491;29;20211;-42
2022/05/29 02:57:08;;;;;;;24.27;6.80;;;;;;;8.14;100.00;100937.81;4955234;28;20183;-43
2022/05/29 03:00:07;;;;;;;20.95;6.80;;;;;;;8.19;100.00;100939.41;4954907;29;20181;-43
2022/05/29 03:02:48;;;;;;;16.80;6.75;;;;;;;8.29;100.00;100932.06;4954984;28;20203;-43
2022/05/29 03:05:49;;;;;;;24.23;7.43;;;;;;;8.28;100.00;100934.75;4985370;28;20179;-44
2022/05/29 03:08:46;;;;;;;18.25;6.63;;;;;;;8.27;100.00;100935.69;4953859;28;20241;-44
2022/05/29 03:11:40;;;;;;;15.35;5.60;;;;;;;8.39;100.00;100922.00;4954643;29;20177;-42
2022/05/29 03:14:27;;;;;;;18.98;6.65;;;;;;;8.36;100.00;100922.97;4953900;29;20209;-42
2022/05/29 03:17:13;;;;;;;22.33;6.28;;;;;;;8.36;100.00;100935.44;4954457;29;20527;-43
2022/05/29 03:19:46;;;;;;;16.17;5.55;;;;;;;8.41;100.00;100931.72;4954762;28;20237;-43
2022/05/29 03:22:33;;;;;;;19.50;6.53;;;;;;;8.46;100.00;100934.28;4954885;28;20226;-41
2022/05/29 03:25:05;;;;;;;18.52;6.90;;;;;;;8.34;100.00;100932.78;4952834;29;20627;-43
2022/05/29 03:27:48;;;;;;;24.08;7.53;;;;;;;8.27;100.00;100931.22;4954193;29;20234;-43
2022/05/29 03:30:27;;;;;;;23.52;7.07;;;;;;;8.31;100.00;100919.56;4954320;29;20211;-43
2022/05/29 03:32:56;;;;;;;24.77;6.75;;;;;;;8.35;100.00;100931.00;4954471;29;20194;-43
2022/05/29 03:35:48;;;;;;;26.33;7.85;;;;;;;8.42;100.00;100925.50;4954257;29;20191;-44
2022/05/29 03:38:13;;;;;;;20.63;7.90;;;;;;;8.45;100.00;100932.53;4954327;29;20175;-44
2022/05/29 03:40:39;;;;;;;20.92;6.85;;;;;;;8.54;100.00;100918.06;4954579;28;20194;-44
2022/05/29 03:43:05;;;;;;;24.30;6.68;;;;;;;8.53;100.00;100927.00;4953577;29;20729;-44
2022/05/29 03:45:31;;;;;;;28.38;7.28;;;;;;;8.56;100.00;100921.56;4954179;28;20218;-43
2022/05/29 03:47:56;;;;;;;23.98;6.63;;;;;;;8.62;100.00;100922.25;4954249;28;20203;-42
2022/05/29 03:50:23;;;;;;;24.50;7.05;;;;;;;8.60;100.00;100920.56;4954417;29;20771;-42
2022/05/29 03:52:49;;;;;;;26.88;7.03;;;;;;;8.71;100.00;100923.78;4954122;29;20242;-43
2022/05/29 03:55:17;;;;;;;26.48;6.50;;;;;;;8.87;100.00;100924.22;4953825;29;20178;-42
2022/05/29 03:57:42;;;;;;;20.17;6.57;;;;;;;8.85;100.00;100931.38;4954387;29;20167;-46
2022/05/29 04:00:11;;;;;;;20.13;5.95;;;;;;;9.05;100.00;100923.66;4954439;29;20178;-45
2022/05/29 04:02:40;;;;;;;21.48;6.30;;;;;;;9.06;100.00;100921.88;4953835;28;20212;-42
2022/05/29 04:05:12;;;;;;;17.98;5.97;;;;;;;9.05;100.00;100918.31;4953089;28;20690;-45
2022/05/29 04:13:07;;;;;;;23.83;5.63;;;;;;;9.25;100.00;100927.53;4952955;29;20269;-44
2022/05/29 04:15:32;;;;;;;20.90;5.63;;;;;;;9.28;100.00;100927.41;4952594;29;20191;-45
2022/05/29 04:17:58;;;;;;;25.27;6.32;;;;;;;9.33;100.00;100929.94;4953889;29;20650;-44
2022/05/29 04:20:23;;;;;;;20.30;5.88;;;;;;;9.36;100.00;100922.72;4953771;29;20178;-44
2022/05/29 04:22:49;;;;;;;27.05;6.75;;;;;;;9.34;100.00;100927.25;4953885;29;20737;-46
2022/05/29 04:25:14;;;;;;;23.83;6.78;;;;;;;9.35;100.00;100917.41;4953186;29;20238;-43
2022/05/29 04:27:39;;;;;;;24.20;5.53;;;;;;;9.39;100.00;100916.38;4953534;29;20301;-43
2022/05/29 04:30:06;;;;;;;24.17;6.60;;;;;;;9.39;100.00;100914.59;4953615;29;20606;-44
2022/05/29 04:35:15;;;;;;;24.65;5.80;;;;;;;9.45;100.00;100922.41;4953311;29;20673;-43
2022/05/29 04:37:41;;;;;;;20.88;6.18;;;;;;;9.45;100.00;100916.19;4953347;28;20183;-44
2022/05/29 04:40:07;;;;;;;25.98;6.50;;;;;;;9.51;100.00;100916.00;4953527;29;20194;-43
2022/05/29 04:42:33;;;;;;;33.03;6.72;;;;;;;9.49;100.00;100920.53;4953226;28;20206;-43
2022/05/29 04:44:59;;;;;;;23.13;6.55;;;;;;;9.49;100.00;100921.41;4952940;28;20637;-41
2022/05/29 04:47:24;;;;;;;18.58;5.65;;;;;;;9.54;100.00;100915.03;4953489;29;20207;-44
2022/05/29 04:49:50;;;;;;;21.20;5.90;;;;;;;9.59;100.00;100915.75;4952091;29;20182;-43
2022/05/29 04:52:15;;;;;;;28.52;6.22;;;;;;;9.59;100.00;100924.63;4953193;29;20576;-42
2022/05/29 04:54:41;;;;;;;19.02;5.90;;;;;;;9.80;100.00;100922.19;4952557;29;20178;-43
2022/05/29 04:57:08;;;;;;;22.75;5.55;;;;;;;9.91;100.00;100920.03;4953007;29;20159;-44
2022/05/29 04:59:34;;;;;;;21.38;5.13;;;;;;;10.03;100.00;100913.38;4953162;29;20178;-43
2022/05/29 05:02:01;;;;;;;22.27;5.40;;;;;;;10.09;100.00;100910.47;4952734;29;20657;-44
2022/05/29 05:04:27;;;;;;;25.15;5.50;;;;;;;10.15;100.00;100915.63;4952668;29;20189;-43
2022/05/29 05:06:58;;;;;;;19.45;4.88;;;;;;;10.19;99.53;100919.94;4952610;29;20210;-44
2022/05/29 05:09:25;;;;;;;27.80;5.22;;;;;;;10.27;99.44;100915.16;4952705;28;20317;-44
2022/05/29 05:11:52;;;;;;;23.67;5.60;;;;;;;10.33;98.90;100926.66;4952715;29;20191;-45
2022/05/29 05:14:18;;;;;;;19.98;5.15;;;;;;;10.31;98.47;100913.31;4952001;28;20179;-46
2022/05/29 05:16:43;;;;;;;18.88;5.40;;;;;;;10.43;98.18;100911.97;4952753;29;20190;-45
2022/05/29 05:19:08;;;;;;;12.38;4.53;;;;;;;10.48;97.77;100916.25;4952679;29;20196;-45
2022/05/29 05:21:34;;;;;;;27.13;5.57;;;;;;;10.54;97.33;100909.81;4952626;29;20179;-44
2022/05/29 05:23:59;;;;;;;18.38;5.20;;;;;;;10.67;97.10;100916.44;4951907;29;20259;-45
2022/05/29 05:26:25;;;;;;;29.92;5.47;;;;;;;10.51;96.57;100905.41;4952334;29;20215;-44
2022/05/29 05:28:50;;;;;;;26.42;5.28;;;;;;;10.74;96.83;100913.56;4952551;29;20208;-43
2022/05/29 05:31:15;;;;;;;21.15;5.40;;;;;;;10.56;96.50;100905.25;4952417;29;20183;-43
2022/05/29 05:33:41;;;;;;;20.83;5.65;;;;;;;10.78;96.23;100902.66;4951567;29;20202;-42
2022/05/29 05:36:06;;;;;;;15.90;4.95;;;;;;;10.82;96.18;100906.06;4952396;29;20587;-42
2022/05/29 05:38:32;;;;;;;23.45;5.53;;;;;;;10.68;95.17;100901.25;4952064;29;20209;-42
2022/05/29 05:40:58;;;;;;;21.42;4.85;;;;;;;10.82;95.41;100898.94;4949629;29;20201;-43
2022/05/29 05:43:23;;;;;;;24.83;4.88;;;;;;;10.91;94.99;100900.34;4945511;28;20306;-43
2022/05/29 05:45:49;;;;;;;23.27;5.60;;;;;;;11.09;94.85;100894.28;4952398;28;20191;-44
2022/05/29 05:48:15;;;;;;;26.45;5.32;;;;;;;11.06;93.94;100907.84;4951074;29;20293;-43
2022/05/29 05:50:41;;;;;;;22.02;4.88;;;;;;;11.10;93.85;100904.06;4951825;29;20191;-42
2022/05/29 05:53:07;;;;;;;27.98;6.13;;;;;;;11.30;93.50;100894.34;4934329;29;20221;-44
2022/05/29 05:55:32;;;;;;;26.55;5.30;;;;;;;11.13;92.64;100893.25;4952054;29;20183;-44
2022/05/29 05:57:57;;;;;;;22.02;4.72;;;;;;;11.11;92.82;100910.31;4952142;29;20171;-45
2022/05/29 06:00:23;;;;;;;20.75;5.10;;;;;;;11.00;92.69;100904.47;4952116;29;20622;-44
2022/05/29 06:02:48;;;;;;;23.95;5.10;;;;;;;10.91;92.94;100901.25;4951604;28;20225;-44
2022/05/29 06:05:15;;;;;;;22.83;5.40;;;;;;;11.33;92.90;100891.56;4951586;29;20181;-43
2022/05/29 06:07:41;;;;;;;32.20;6.38;;;;;;;11.60;91.38;100896.75;4951612;29;20245;-43
2022/05/29 06:10:08;;;;;;;25.70;6.15;;;;;;;11.34;90.44;100896.00;4952079;29;20693;-44
2022/05/29 06:12:33;;;;;;;23.42;5.95;;;;;;;11.57;90.48;100896.84;4952003;29;20208;-44
2022/05/29 06:14:59;;;;;;;29.13;6.28;;;;;;;11.48;89.59;100901.69;4951492;29;20658;-42
2022/05/29 06:17:26;;;;;;;24.25;5.32;;;;;;;12.27;88.50;100899.25;4952105;29;20246;-42
2022/05/29 06:19:52;;;;;;;22.08;4.57;;;;;;;12.63;86.44;100898.53;4951864;29;20214;-44
2022/05/29 06:22:17;;;;;;;23.35;5.05;;;;;;;12.22;85.80;100895.00;4951800;28;20198;-44
2022/05/29 06:24:43;;;;;;;16.60;4.32;;;;;;;11.75;86.90;100899.66;4951688;29;20183;-44
2022/05/29 06:27:08;;;;;;;21.27;4.80;;;;;;;12.18;87.15;100898.78;4953206;28;20218;-46
2022/05/29 06:29:34;;;;;;;23.45;4.97;;;;;;;11.82;87.05;100907.44;4938931;29;20593;-42
2022/05/29 06:32:04;;;;;;;29.92;5.95;;;;;;;12.13;86.04;100890.91;4953124;28;20201;-43
2022/05/29 06:34:30;;;;;;;19.45;4.95;;;;;;;12.13;85.75;100902.56;4955453;28;20634;-44
2022/05/29 06:36:56;;;;;;;25.95;4.80;;;;;;;12.41;84.23;100901.31;4955918;28;20166;-44
2022/05/29 06:39:22;;;;;;;22.88;5.28;;;;;;;12.19;85.25;100906.78;4968834;28;20650;-41
2022/05/29 06:41:48;;;;;;;18.42;4.55;;;;;;;12.75;84.13;100900.66;4955550;29;20185;-43
2022/05/29 06:44:22;;;;;;;24.45;5.20;;;;;;;12.75;83.02;100905.19;4985964;28;20400;-41
2022/05/29 06:46:48;;;;;;;19.08;4.47;;;;;;;13.22;81.31;100907.44;4954214;29;20602;-42
2022/05/29 06:49:13;;;;;;;24.25;5.32;;;;;;;13.79;78.97;100900.16;4953635;28;20617;-44
2022/05/29 06:51:39;;;;;;;19.98;4.60;;;;;;;13.83;78.80;100903.56;4954619;29;20202;-45
2022/05/29 06:54:05;;;;;;;22.10;4.85;;;;;;;13.73;77.51;100900.50;4954765;28;20699;-44
2022/05/29 06:56:31;;;;;;;19.02;5.03;;;;;;;12.91;80.27;100902.66;4955063;29;20664;-43
2022/05/29 06:58:58;;;;;;;22.52;4.85;;;;;;;13.07;80.87;100905.47;4954829;28;20183;-45
2022/05/29 07:07:00;;;;;;;14.27;3.97;;;;;;;12.73;82.56;100904.38;4955261;29;20575;-43
2022/05/29 07:09:28;;;;;;;32.28;5.55;;;;;;;12.92;81.66;100904.38;4954375;29;20646;-43
2022/05/29 07:12:00;;;;;;;23.60;4.80;;;;;;;13.52;80.54;100901.56;4954687;29;20294;-43
2022/05/29 07:14:25;;;;;;;22.52;4.68;;;;;;;13.41;79.21;100899.38;4954145;29;20193;-44
2022/05/29 07:16:51;;;;;;;17.75;4.10;;;;;;;13.87;76.64;100902.47;4954766;28;20617;-43
2022/05/29 07:19:20;;;;;;;19.08;5.10;;;;;;;14.32;75.82;100902.84;4954555;28;20178;-42
2022/05/29 07:21:46;;;;;;;19.70;4.60;;;;;;;14.72;74.11;100907.03;4953406;28;20257;-42
2022/05/29 07:24:12;;;;;;;21.23;4.75;;;;;;;13.85;74.46;100903.50;4953943;29;20182;-43
2022/05/29 07:26:37;;;;;;;20.98;4.82;;;;;;;13.77;77.04;100901.19;4953341;29;20214;-42
2022/05/29 07:29:03;;;;;;;21.35;4.47;;;;;;;14.08;76.55;100900.50;4953324;29;20182;-43
2022/05/29 07:31:29;;;;;;;21.17;5.05;;;;;;;13.36;76.41;100894.22;4985722;28;20183;-44
2022/05/29 07:33:55;;;;;;;18.20;4.20;;;;;;;13.36;78.21;100901.44;4952763;29;20199;-42
2022/05/29 07:36:24;;;;;;;19.35;4.80;;;;;;;13.83;76.68;100902.72;4954104;29;20183;-42
2022/05/29 07:38:50;;;;;;;19.95;4.18;;;;;;;14.05;75.00;100899.78;4954363;28;20733;-43
2022/05/29 07:44:00;;;;;;;18.00;4.22;;;;;;;13.92;74.50;100913.00;4953025;29;20206;-43
2022/05/29 07:46:25;;;;;;;19.35;3.58;;;;;;;14.49;73.14;100899.28;4985448;28;20225;-43
2022/05/29 07:48:51;;;;;;;16.52;4.28;;;;;;;14.92;71.11;100905.94;4953840;28;20537;-43
2022/05/29 07:51:17;;;;;;;14.73;3.55;;;;;;;14.91;70.35;100908.72;4953308;29;20212;-44
2022/05/29 07:53:43;;;;;;;18.48;3.83;;;;;;;15.35;69.27;100900.84;4952560;28;20194;-42
2022/05/29 07:56:09;;;;;;;17.30;3.72;;;;;;;16.05;68.36;100892.31;4952093;28;20182;-42
2022/05/29 07:58:38;;;;;;;19.88;3.90;;;;;;;16.29;64.88;100887.25;4952209;28;20175;-42
2022/05/29 08:01:04;;;;;;;16.50;3.63;;;;;;;16.10;65.00;100897.44;4951966;29;20557;-43
2022/05/29 08:03:29;;;;;;;14.73;3.25;;;;;;;16.21;65.12;100894.94;4951631;28;20289;-42
2022/05/29 08:05:56;;;;;;;14.07;3.65;;;;;;;16.39;63.88;100890.22;4952018;28;20171;-43
2022/05/29 08:08:22;;;;;;;14.98;4.05;;;;;;;15.79;66.53;100885.75;4951799;28;20207;-44
2022/05/29 08:10:49;;;;;;;11.30;3.40;;;;;;;15.61;65.65;100893.03;4952091;29;20175;-43
2022/05/29 08:13:14;;;;;;;10.13;2.53;;;;;;;14.94;66.24;100909.44;4951368;28;20198;-42
2022/05/29 08:15:40;;;;;;;12.88;3.50;;;;;;;14.88;65.64;100906.19;4951879;28;20650;-41
2022/05/29 08:18:06;;;;;;;13.32;3.58;;;;;;;14.77;67.50;100913.03;4951902;28;20179;-44
2022/05/29 08:20:32;;;;;;;9.85;3.00;;;;;;;14.60;68.69;100910.38;4951641;29;20171;-43
2022/05/29 08:22:58;;;;;;;12.73;2.95;;;;;;;14.81;70.14;100906.53;4951654;29;20198;-42
2022/05/29 08:30:54;;;;;;;14.80;3.15;;;;;;;14.20;66.24;100899.00;4953276;28;20178;-43
2022/05/29 08:33:28;;;;;;;15.55;3.42;;;;;;;14.93;66.54;100904.97;4952874;29;20303;-44
2022/05/29 08:36:08;;;;;;;15.57;3.58;;;;;;;15.72;66.33;100893.34;4953695;29;20174;-44
2022/05/29 08:38:36;;;;;;;15.05;3.40;;;;;;;16.16;64.77;100895.22;4951661;29;20197;-45
2022/05/29 08:41:15;;;;;;;13.90;3.03;;;;;;;16.60;64.79;100888.03;4953676;29;20354;-45
2022/05/29 08:44:06;;;;;;;13.57;3.50;;;;;;;16.19;62.24;100886.06;4953085;29;20202;-46
2022/05/29 08:46:37;;;;;;;11.45;3.47;;;;;;;16.98;61.28;100890.19;4953125;29;20203;-44
2022/05/29 08:49:04;;;;;;;10.27;3.00;;;;;;;16.60;61.15;100882.63;4952811;28;20171;-46
2022/05/29 08:52:00;;;;;;;11.52;2.72;;;;;;;17.22;59.38;100880.47;4967547;28;20199;-47
2022/05/29 08:54:38;;;;;;;9.85;3.05;;;;;;;16.53;61.87;100883.97;4952803;29;20594;-45
2022/05/29 08:57:40;;;;;;;11.13;3.03;;;;;;;17.11;62.59;100891.13;4983943;28;20162;-45
2022/05/29 09:00:22;;;;;;;10.98;3.05;;;;;;;17.47;62.43;100885.16;4953013;29;20209;-45
2022/05/29 09:03:19;;;;;;;15.32;3.13;;;;;;;17.24;59.83;100886.66;4952494;29;20202;-45
2022/05/29 09:05:48;;;;;;;12.30;3.28;;;;;;;17.28;60.74;100888.19;4953079;29;20167;-44
2022/05/29 09:08:19;;;;;;;11.05;3.45;;;;;;;17.11;61.23;100890.25;4952440;29;20258;-43
2022/05/29 09:10:47;;;;;;;10.13;2.65;;;;;;;16.70;60.20;100883.78;4952492;29;20311;-47
2022/05/29 09:13:22;;;;;;;12.80;3.40;;;;;;;17.59;57.92;100885.31;4952512;28;20207;-46
2022/05/29 09:15:51;;;;;;;12.70;2.45;;;;;;;16.93;58.50;100882.34;4952654;29;20202;-44
2022/05/29 09:18:38;;;;;;;8.80;2.58;;;;;;;16.57;59.88;100885.50;4952855;29;20167;-43
2022/05/29 09:21:25;;;;;;;11.27;2.60;;;;;;;16.13;60.83;100889.13;4952537;29;20229;-45
2022/05/29 09:24:05;;;;;;;11.27;2.85;;;;;;;16.24;60.52;100886.63;4952438;29;20556;-45
2022/05/29 09:26:37;;;;;;;13.15;3.00;;;;;;;16.11;62.36;100883.78;4952459;29;20202;-46
2022/05/29 09:29:05;;;;;;;9.15;2.63;;;;;;;15.77;62.31;100887.66;4952556;29;20198;-48
2022/05/29 09:31:32;;;;;;;11.75;3.13;;;;;;;16.20;61.13;100895.88;4952372;28;20634;-48
2022/05/29 09:33:58;;;;;;;10.27;2.60;;;;;;;16.07;62.55;100898.50;4951291;29;20294;-48
2022/05/29 09:36:30;;;;;;;13.65;2.70;;;;;;;16.38;60.71;100883.97;4952557;29;20183;-48
2022/05/29 09:39:27;;;;;;;11.10;2.97;;;;;;;16.26;59.73;100884.69;4951865;29;20218;-47
2022/05/29 09:42:12;;;;;;;11.95;2.90;;;;;;;16.80;61.34;100879.56;4950812;29;20689;-48
2022/05/29 09:44:38;;;;;;;11.18;2.60;;;;;;;17.05;59.14;100881.59;4951364;28;20265;-50
2022/05/29 09:50:10;;;;;;;10.52;2.88;;;;;;;16.14;63.07;100888.19;4952059;29;20175;-47
2022/05/29 09:52:41;;;;;;;14.25;3.33;;;;;;;15.94;65.68;100886.66;4951768;28;20571;-49
2022/05/29 09:55:22;;;;;;;12.35;3.20;;;;;;;15.62;65.75;100886.69;4951720;29;20273;-49
2022/05/29 09:57:48;;;;;;;11.20;2.72;;;;;;;15.54;64.83;100887.13;4951866;29;20761;-47
2022/05/29 10:00:24;;;;;;;12.00;3.05;;;;;;;16.26;64.47;100876.59;4952060;29;20265;-47
2022/05/29 10:02:51;;;;;;;10.25;3.20;;;;;;;16.54;63.57;100874.91;4951730;29;20735;-47
2022/05/29 10:05:35;;;;;;;15.93;4.22;;;;;;;16.16;61.64;100881.72;4951632;28;20219;-49
2022/05/29 10:08:16;;;;;;;14.85;3.28;;;;;;;15.64;64.26;100877.53;4951881;29;20313;-45
2022/05/29 10:10:41;;;;;;;12.20;3.35;;;;;;;15.44;63.40;100872.44;4951975;29;20689;-46
2022/05/29 10:13:07;;;;;;;12.45;3.10;;;;;;;16.21;62.78;100863.38;4951534;29;20203;-47
2022/05/29 10:15:35;;;;;;;13.23;3.17;;;;;;;16.46;61.98;100868.13;4951258;28;20175;-45
2022/05/29 10:18:31;;;;;;;13.20;3.25;;;;;;;16.60;62.84;100867.25;4951686;28;20175;-50
2022/05/29 10:21:08;;;;;;;15.27;3.45;;;;;;;16.14;60.64;100869.25;4951860;29;20187;-45
2022/05/29 10:23:38;;;;;;;11.00;2.80;;;;;;;15.64;62.13;100868.56;4951171;29;20264;-50
2022/05/29 10:26:28;;;;;;;10.55;2.58;;;;;;;15.89;62.59;100873.41;4951633;29;20194;-48
2022/05/29 10:28:54;;;;;;;11.45;3.08;;;;;;;16.06;63.61;100878.66;4951587;29;20183;-48
2022/05/29 10:31:23;;;;;;;10.80;3.30;;;;;;;16.17;65.44;100871.75;4982776;28;20183;-46
2022/05/29 10:34:06;;;;;;;10.90;2.75;;;;;;;16.52;63.72;100872.28;4951101;29;20261;-46
2022/05/29 10:36:31;;;;;;;10.23;2.88;;;;;;;15.84;65.86;100873.69;4951626;28;20167;-46
2022/05/29 10:39:13;;;;;;;8.63;2.88;;;;;;;16.45;64.47;100877.19;4951639;29;20202;-46
2022/05/29 10:41:41;;;;;;;11.27;2.70;;;;;;;16.02;64.29;100881.66;4951693;28;20170;-46
2022/05/29 10:44:10;;;;;;;12.15;3.28;;;;;;;16.26;65.18;100872.06;4951219;29;20195;-47
2022/05/29 10:46:40;;;;;;;13.27;3.70;;;;;;;16.46;63.88;100862.72;4951245;29;20373;-48
2022/05/29 10:49:07;;;;;;;10.90;3.20;;;;;;;15.96;65.91;100864.00;4951640;28;20185;-45
2022/05/29 10:51:54;;;;;;;9.40;2.95;;;;;;;16.89;62.95;100860.03;4951676;28;20163;-47
2022/05/29 10:54:34;;;;;;;12.07;2.55;;;;;;;16.34;61.02;100863.47;4951250;29;20595;-47
2022/05/29 10:57:07;;;;;;;14.25;3.72;;;;;;;16.63;63.66;100858.09;4951438;29;20650;-48
2022/05/29 11:00:01;;;;;;;12.40;2.80;;;;;;;15.78;65.37;100862.38;4951105;28;20226;-46
2022/05/29 11:05:41;;;;;;;14.48;3.00;;;;;;;15.93;64.53;100863.31;4951124;29;20593;-46
2022/05/29 11:08:09;;;;;;;14.63;3.28;;;;;;;15.99;64.14;100857.53;4951281;29;20261;-47
2022/05/29 11:11:05;;;;;;;12.75;3.50;;;;;;;15.78;66.38;100865.09;4951256;29;20188;-48
2022/05/29 11:13:55;;;;;;;16.83;3.38;;;;;;;15.37;65.87;100849.44;4964437;28;20524;-47
2022/05/29 11:16:29;;;;;;;13.15;3.75;;;;;;;15.03;67.54;100859.47;4935624;29;20194;-47
2022/05/29 11:19:19;;;;;;;11.48;3.70;;;;;;;15.44;66.59;100846.31;4935596;29;20265;-46
2022/05/29 11:22:12;;;;;;;11.57;3.28;;;;;;;15.27;66.21;100842.84;4935684;29;20668;-46
2022/05/29 11:24:49;;;;;;;13.27;3.42;;;;;;;14.95;68.24;100848.22;4935046;29;20647;-46
2022/05/29 11:27:49;;;;;;;13.75;3.13;;;;;;;14.82;68.99;100848.94;4935409;29;20708;-47
2022/05/29 11:30:39;;;;;;;12.63;3.35;;;;;;;14.68;68.71;100856.03;4935382;29;20203;-48
2022/05/29 11:33:23;;;;;;;8.98;3.88;;;;;;;15.20;67.74;100848.59;4935128;29;20234;-48
2022/05/29 11:36:07;;;;;;;10.00;2.97;;;;;;;16.02;65.43;100841.13;4935370;29;20179;-49
2022/05/29 11:38:39;;;;;;;13.95;3.65;;;;;;;16.01;66.11;100844.81;4935533;29;20246;-49
2022/05/29 11:41:10;;;;;;;9.85;2.67;;;;;;;16.15;64.37;100842.09;4933413;29;20247;-51
2022/05/29 11:43:48;;;;;;;13.43;3.65;;;;;;;15.90;64.51;100834.63;4934892;29;20262;-48
2022/05/29 11:52:35;;;;;;;11.45;3.17;;;;;;;15.33;65.07;100837.97;4935097;29;20706;-48
2022/05/29 11:55:13;;;;;;;14.45;3.47;;;;;;;15.52;65.04;100826.94;4965193;28;20278;-45
2022/05/29 11:57:53;;;;;;;11.25;3.03;;;;;;;16.23;65.25;100828.13;4934913;29;20274;-46
2022/05/29 12:00:21;;;;;;;16.40;3.17;;;;;;;16.30;64.05;100820.50;4934632;29;20175;-48
2022/05/29 12:03:02;;;;;;;11.68;3.30;;;;;;;16.15;64.53;100825.88;4934780;29;20298;-47
2022/05/29 12:06:01;;;;;;;10.40;2.58;;;;;;;16.33;63.51;100817.59;4934783;29;20175;-47
2022/05/29 12:08:51;;;;;;;12.52;2.83;;;;;;;16.78;63.36;100813.81;4934889;29;20694;-46
2022/05/29 12:11:38;;;;;;;11.88;2.95;;;;;;;16.67;61.73;100819.06;4936138;29;20187;-50
2022/05/29 12:14:26;;;;;;;9.57;2.97;;;;;;;17.02;62.90;100811.38;4953570;29;20265;-49